sensor_id;sensor_type;location;lat;lon;timestamp;noise_LAeq;noise_LA_min;noise_LA_max;noise_LA01;noise_LA95
4048;Laerm;2038;51.728;6.674;2024-03-23T00:54:52;35.91;23.90;39.34;;
4048;Laerm;2038;51.728;6.674;2024-03-23T00:57:18;35.96;26.91;39.21;;
4048;Laerm;2038;51.728;6.674;2024-03-23T00:59:44;35.94;26.91;39.34;;
4048;Laerm;2038;51.728;6.674;2024-03-23T01:02:10;35.96;26.91;39.21;;
4048;Laerm;2038;51.728;6.674;2024-03-23T01:04:36;35.91;5.00;39.46;;
4048;Laerm;2038;51.728;6.674;2024-03-23T01:07:03;35.99;5.00;39.34;;
4048;Laerm;2038;51.728;6.674;2024-03-23T01:09:29;36.00;26.91;39.21;;
4048;Laerm;2038;51.728;6.674;2024-03-23T01:11:55;36.02;23.90;39.34;;
4048;Laerm;2038;51.728;6.674;2024-03-23T01:14:22;36.00;26.91;39.23;;
4048;Laerm;2038;51.728;6.674;2024-03-23T01:16:48;36.04;26.91;39.58;;
4048;Laerm;2038;51.728;6.674;2024-03-23T01:19:14;36.09;23.90;39.21;;
4048;Laerm;2038;51.728;6.674;2024-03-23T01:22:00;36.10;23.90;39.46;;
4048;Laerm;2038;51.728;6.674;2024-03-23T01:24:26;36.04;23.90;39.34;;
4048;Laerm;2038;51.728;6.674;2024-03-23T01:26:52;36.08;26.91;39.58;;
4048;Laerm;2038;51.728;6.674;2024-03-23T01:29:18;36.04;26.91;39.58;;
4048;Laerm;2038;51.728;6.674;2024-03-23T01:31:45;36.07;26.91;39.21;;
4048;Laerm;2038;51.728;6.674;2024-03-23T01:34:11;36.05;26.91;39.34;;
4048;Laerm;2038;51.728;6.674;2024-03-23T01:36:38;36.10;23.90;39.21;;
4048;Laerm;2038;51.728;6.674;2024-03-23T01:39:05;36.06;26.91;39.58;;
4048;Laerm;2038;51.728;6.674;2024-03-23T01:41:31;36.05;23.90;39.92;;
4048;Laerm;2038;51.728;6.674;2024-03-23T01:43:57;36.05;26.91;39.21;;
4048;Laerm;2038;51.728;6.674;2024-03-23T01:46:24;36.04;23.90;39.46;;
4048;Laerm;2038;51.728;6.674;2024-03-23T01:49:10;36.03;23.90;39.46;;
4048;Laerm;2038;51.728;6.674;2024-03-23T01:52:14;36.01;26.91;39.46;;
4048;Laerm;2038;51.728;6.674;2024-03-23T01:54:41;36.01;23.90;39.34;;
4048;Laerm;2038;51.728;6.674;2024-03-23T01:57:21;36.08;26.91;39.70;;
4048;Laerm;2038;51.728;6.674;2024-03-23T01:59:48;35.99;23.90;39.34;;
4048;Laerm;2038;51.728;6.674;2024-03-23T02:02:15;36.03;23.90;39.21;;
4048;Laerm;2038;51.728;6.674;2024-03-23T02:04:43;36.00;23.90;39.21;;
4048;Laerm;2038;51.728;6.674;2024-03-23T02:07:10;36.01;23.90;39.34;;
4048;Laerm;2038;51.728;6.674;2024-03-23T02:09:36;36.00;26.91;39.46;;
4048;Laerm;2038;51.728;6.674;2024-03-23T02:12:03;36.03;26.56;39.34;;
4048;Laerm;2038;51.728;6.674;2024-03-23T02:14:29;36.02;23.90;39.21;;
4048;Laerm;2038;51.728;6.674;2024-03-23T02:16:55;35.97;26.91;39.23;;
4048;Laerm;2038;51.728;6.674;2024-03-23T02:19:22;35.95;26.91;39.70;;
4048;Laerm;2038;51.728;6.674;2024-03-23T02:21:48;35.96;26.91;39.21;;
4048;Laerm;2038;51.728;6.674;2024-03-23T02:24:14;36.01;26.91;39.70;;
4048;Laerm;2038;51.728;6.674;2024-03-23T02:26:40;36.00;26.91;39.46;;
4048;Laerm;2038;51.728;6.674;2024-03-23T02:29:07;36.05;23.90;39.81;;
4048;Laerm;2038;51.728;6.674;2024-03-23T02:31:35;35.99;23.90;39.34;;
4048;Laerm;2038;51.728;6.674;2024-03-23T02:34:02;35.99;26.91;39.46;;
4048;Laerm;2038;51.728;6.674;2024-03-23T02:36:40;35.99;26.91;39.46;;
4048;Laerm;2038;51.728;6.674;2024-03-23T02:39:06;35.95;26.56;39.70;;
4048;Laerm;2038;51.728;6.674;2024-03-23T02:41:45;35.99;26.91;39.81;;
4048;Laerm;2038;51.728;6.674;2024-03-23T02:44:11;35.96;26.91;39.21;;
4048;Laerm;2038;51.728;6.674;2024-03-23T02:46:38;35.90;5.00;39.57;;
4048;Laerm;2038;51.728;6.674;2024-03-23T02:49:10;35.88;23.90;39.34;;
4048;Laerm;2038;51.728;6.674;2024-03-23T02:51:37;35.93;23.90;39.70;;
4048;Laerm;2038;51.728;6.674;2024-03-23T02:54:03;35.92;23.90;39.34;;
4048;Laerm;2038;51.728;6.674;2024-03-23T02:56:38;35.88;23.90;39.34;;
4048;Laerm;2038;51.728;6.674;2024-03-23T02:59:05;35.86;26.91;39.46;;
4048;Laerm;2038;51.728;6.674;2024-03-23T03:01:43;35.90;5.00;39.34;;
4048;Laerm;2038;51.728;6.674;2024-03-23T03:04:09;35.88;23.90;39.58;;
4048;Laerm;2038;51.728;6.674;2024-03-23T03:06:36;35.85;23.90;39.34;;
4048;Laerm;2038;51.728;6.674;2024-03-23T03:09:03;35.83;26.91;39.21;;
4048;Laerm;2038;51.728;6.674;2024-03-23T03:11:29;35.83;23.90;39.08;;
4048;Laerm;2038;51.728;6.674;2024-03-23T03:14:07;35.88;26.91;39.34;;
4048;Laerm;2038;51.728;6.674;2024-03-23T03:16:34;35.82;26.91;39.46;;
4048;Laerm;2038;51.728;6.674;2024-03-23T03:19:00;35.82;23.90;39.58;;
4048;Laerm;2038;51.728;6.674;2024-03-23T03:21:27;35.83;23.90;39.58;;
4048;Laerm;2038;51.728;6.674;2024-03-23T03:23:54;35.83;26.91;39.58;;
4048;Laerm;2038;51.728;6.674;2024-03-23T03:26:22;35.81;23.90;39.46;;
4048;Laerm;2038;51.728;6.674;2024-03-23T03:28:50;35.75;26.91;39.08;;
4048;Laerm;2038;51.728;6.674;2024-03-23T03:31:35;35.81;26.91;39.21;;
4048;Laerm;2038;51.728;6.674;2024-03-23T03:34:01;35.82;23.90;38.99;;
4048;Laerm;2038;51.728;6.674;2024-03-23T03:36:28;35.77;26.91;39.46;;
4048;Laerm;2038;51.728;6.674;2024-03-23T03:39:07;35.80;23.90;39.46;;
4048;Laerm;2038;51.728;6.674;2024-03-23T03:41:33;35.78;5.00;39.46;;
4048;Laerm;2038;51.728;6.674;2024-03-23T03:43:59;35.77;23.90;39.21;;
4048;Laerm;2038;51.728;6.674;2024-03-23T03:46:31;35.76;23.90;39.34;;
4048;Laerm;2038;51.728;6.674;2024-03-23T03:48:59;35.75;5.00;39.58;;
4048;Laerm;2038;51.728;6.674;2024-03-23T03:51:29;35.76;23.90;39.34;;
4048;Laerm;2038;51.728;6.674;2024-03-23T03:54:10;35.78;26.91;39.21;;
4048;Laerm;2038;51.728;6.674;2024-03-23T03:56:41;35.70;26.91;39.81;;
4048;Laerm;2038;51.728;6.674;2024-03-23T03:59:08;35.75;23.90;38.95;;
4048;Laerm;2038;51.728;6.674;2024-03-23T04:01:35;35.75;26.91;39.21;;
4048;Laerm;2038;51.728;6.674;2024-03-23T04:04:04;35.78;26.91;39.21;;
4048;Laerm;2038;51.728;6.674;2024-03-23T04:06:32;35.75;5.00;39.46;;
4048;Laerm;2038;51.728;6.674;2024-03-23T04:09:03;35.73;28.67;39.46;;
4048;Laerm;2038;51.728;6.674;2024-03-23T04:11:36;35.74;23.90;39.08;;
4048;Laerm;2038;51.728;6.674;2024-03-23T04:14:06;35.73;23.90;39.08;;
4048;Laerm;2038;51.728;6.674;2024-03-23T04:16:36;35.73;26.56;39.08;;
4048;Laerm;2038;51.728;6.674;2024-03-23T04:19:03;35.73;26.91;39.08;;
4048;Laerm;2038;51.728;6.674;2024-03-23T04:21:40;35.75;26.91;39.58;;
4048;Laerm;2038;51.728;6.674;2024-03-23T04:24:10;35.74;26.91;40.03;;
4048;Laerm;2038;51.728;6.674;2024-03-23T04:26:43;35.73;26.91;39.21;;
4048;Laerm;2038;51.728;6.674;2024-03-23T04:29:09;35.73;26.91;39.34;;
4048;Laerm;2038;51.728;6.674;2024-03-23T04:31:38;35.74;26.91;39.81;;
4048;Laerm;2038;51.728;6.674;2024-03-23T04:34:06;35.70;26.91;39.34;;
4048;Laerm;2038;51.728;6.674;2024-03-23T04:36:34;35.72;26.91;39.70;;
4048;Laerm;2038;51.728;6.674;2024-03-23T04:39:14;35.72;26.91;39.34;;
4048;Laerm;2038;51.728;6.674;2024-03-23T04:41:42;35.69;23.90;39.21;;
4048;Laerm;2038;51.728;6.674;2024-03-23T04:44:10;35.72;23.90;39.34;;
4048;Laerm;2038;51.728;6.674;2024-03-23T04:46:51;35.70;26.91;39.46;;
4048;Laerm;2038;51.728;6.674;2024-03-23T04:49:27;35.71;26.91;39.08;;
4048;Laerm;2038;51.728;6.674;2024-03-23T04:51:55;35.70;26.91;39.08;;
4048;Laerm;2038;51.728;6.674;2024-03-23T04:54:25;35.71;23.90;39.21;;
4048;Laerm;2038;51.728;6.674;2024-03-23T04:56:59;35.74;23.90;39.21;;
4048;Laerm;2038;51.728;6.674;2024-03-23T04:59:40;35.68;23.90;39.08;;
4048;Laerm;2038;51.728;6.674;2024-03-23T05:02:10;35.68;23.90;39.21;;
4048;Laerm;2038;51.728;6.674;2024-03-23T05:04:37;35.73;26.91;39.70;;
4048;Laerm;2038;51.728;6.674;2024-03-23T05:07:05;35.70;23.90;39.21;;
4048;Laerm;2038;51.728;6.674;2024-03-23T05:09:45;35.75;26.91;39.58;;
4048;Laerm;2038;51.728;6.674;2024-03-23T05:12:14;35.69;26.91;39.58;;
4048;Laerm;2038;51.728;6.674;2024-03-23T05:14:45;35.72;23.90;39.21;;
4048;Laerm;2038;51.728;6.674;2024-03-23T05:17:16;35.72;23.90;39.70;;
4048;Laerm;2038;51.728;6.674;2024-03-23T05:19:47;35.68;26.91;39.46;;
4048;Laerm;2038;51.728;6.674;2024-03-23T05:22:20;35.69;26.91;39.58;;
4048;Laerm;2038;51.728;6.674;2024-03-23T05:24:54;35.71;26.91;39.23;;
4048;Laerm;2038;51.728;6.674;2024-03-23T05:27:34;35.70;26.91;39.46;;
4048;Laerm;2038;51.728;6.674;2024-03-23T05:30:03;35.72;23.90;39.70;;
4048;Laerm;2038;51.728;6.674;2024-03-23T05:32:36;35.73;28.67;39.70;;
4048;Laerm;2038;51.728;6.674;2024-03-23T05:35:09;35.66;26.91;39.92;;
4048;Laerm;2038;51.728;6.674;2024-03-23T05:37:37;35.66;23.90;39.21;;
4048;Laerm;2038;51.728;6.674;2024-03-23T05:40:09;35.72;26.91;39.08;;
4048;Laerm;2038;51.728;6.674;2024-03-23T05:42:37;35.69;26.91;39.23;;
4048;Laerm;2038;51.728;6.674;2024-03-23T05:45:09;35.69;23.90;39.08;;
4048;Laerm;2038;51.728;6.674;2024-03-23T05:47:37;35.69;26.91;39.21;;
4048;Laerm;2038;51.728;6.674;2024-03-23T05:50:22;35.69;26.91;39.21;;
4048;Laerm;2038;51.728;6.674;2024-03-23T05:52:50;35.71;23.55;39.21;;
4048;Laerm;2038;51.728;6.674;2024-03-23T05:55:24;35.69;26.91;39.21;;
4048;Laerm;2038;51.728;6.674;2024-03-23T05:57:51;35.73;23.90;39.34;;
4048;Laerm;2038;51.728;6.674;2024-03-23T06:00:20;35.71;23.90;39.08;;
4048;Laerm;2038;51.728;6.674;2024-03-23T06:02:46;35.71;23.90;39.92;;
4048;Laerm;2038;51.728;6.674;2024-03-23T06:05:21;35.70;23.90;39.58;;
4048;Laerm;2038;51.728;6.674;2024-03-23T06:07:54;35.67;23.90;38.95;;
4048;Laerm;2038;51.728;6.674;2024-03-23T06:10:25;35.70;23.90;39.21;;
4048;Laerm;2038;51.728;6.674;2024-03-23T06:12:56;35.70;26.56;39.34;;
4048;Laerm;2038;51.728;6.674;2024-03-23T06:15:32;35.70;23.90;39.46;;
4048;Laerm;2038;51.728;6.674;2024-03-23T06:18:03;35.73;26.91;38.95;;
4048;Laerm;2038;51.728;6.674;2024-03-23T06:20:34;35.69;26.91;39.23;;
4048;Laerm;2038;51.728;6.674;2024-03-23T06:23:06;35.71;23.90;39.34;;
4048;Laerm;2038;51.728;6.674;2024-03-23T06:25:32;35.70;5.00;39.70;;
4048;Laerm;2038;51.728;6.674;2024-03-23T06:28:15;35.73;23.90;39.21;;
4048;Laerm;2038;51.728;6.674;2024-03-23T06:30:43;35.72;5.00;39.08;;
4048;Laerm;2038;51.728;6.674;2024-03-23T06:33:10;35.70;26.91;39.34;;
4048;Laerm;2038;51.728;6.674;2024-03-23T06:35:42;35.72;26.91;39.08;;
4048;Laerm;2038;51.728;6.674;2024-03-23T06:38:10;35.68;5.00;39.34;;
4048;Laerm;2038;51.728;6.674;2024-03-23T06:40:37;35.68;23.90;39.46;;
4048;Laerm;2038;51.728;6.674;2024-03-23T06:43:14;35.71;26.91;39.34;;
4048;Laerm;2038;51.728;6.674;2024-03-23T06:45:44;35.69;23.90;39.34;;
4048;Laerm;2038;51.728;6.674;2024-03-23T06:48:21;35.71;23.90;39.21;;
4048;Laerm;2038;51.728;6.674;2024-03-23T06:50:58;35.68;23.90;39.08;;
4048;Laerm;2038;51.728;6.674;2024-03-23T06:53:30;35.70;26.91;39.58;;
4048;Laerm;2038;51.728;6.674;2024-03-23T06:56:19;35.69;23.90;39.81;;
4048;Laerm;2038;51.728;6.674;2024-03-23T06:59:00;35.69;26.56;39.58;;
4048;Laerm;2038;51.728;6.674;2024-03-23T07:01:35;35.73;28.67;38.95;;
4048;Laerm;2038;51.728;6.674;2024-03-23T07:04:05;35.69;5.00;39.34;;
4048;Laerm;2038;51.728;6.674;2024-03-23T07:06:51;35.73;23.90;39.58;;
4048;Laerm;2038;51.728;6.674;2024-03-23T07:09:18;35.70;23.90;39.46;;
4048;Laerm;2038;51.728;6.674;2024-03-23T07:11:49;35.70;23.90;39.21;;
4048;Laerm;2038;51.728;6.674;2024-03-23T07:14:16;35.73;26.91;39.08;;
4048;Laerm;2038;51.728;6.674;2024-03-23T07:16:46;35.69;23.90;39.21;;
4048;Laerm;2038;51.728;6.674;2024-03-23T07:19:17;35.69;26.91;39.21;;
4048;Laerm;2038;51.728;6.674;2024-03-23T07:21:47;35.69;23.90;39.34;;
4048;Laerm;2038;51.728;6.674;2024-03-23T07:24:20;35.74;26.91;39.08;;
4048;Laerm;2038;51.728;6.674;2024-03-23T07:26:56;35.72;23.90;39.21;;
4048;Laerm;2038;51.728;6.674;2024-03-23T07:29:24;35.73;23.90;39.08;;
4048;Laerm;2038;51.728;6.674;2024-03-23T07:31:51;35.73;26.91;39.34;;
4048;Laerm;2038;51.728;6.674;2024-03-23T07:34:18;35.71;23.90;39.34;;
4048;Laerm;2038;51.728;6.674;2024-03-23T07:36:49;35.70;26.91;39.70;;
4048;Laerm;2038;51.728;6.674;2024-03-23T07:39:20;35.74;26.91;39.34;;
4048;Laerm;2038;51.728;6.674;2024-03-23T07:41:58;35.70;26.91;39.21;;
4048;Laerm;2038;51.728;6.674;2024-03-23T07:44:25;35.73;23.90;39.34;;
4048;Laerm;2038;51.728;6.674;2024-03-23T07:47:05;35.74;23.55;38.95;;
4048;Laerm;2038;51.728;6.674;2024-03-23T07:49:37;35.68;23.90;39.08;;
4048;Laerm;2038;51.728;6.674;2024-03-23T07:52:12;35.72;23.90;39.21;;
4048;Laerm;2038;51.728;6.674;2024-03-23T08:10:12;35.78;26.91;39.58;;
4048;Laerm;2038;51.728;6.674;2024-03-23T08:13:21;35.75;26.91;39.81;;
4048;Laerm;2038;51.728;6.674;2024-03-23T08:20:19;35.73;23.90;39.58;;
4048;Laerm;2038;51.728;6.674;2024-03-23T08:27:01;35.77;23.90;39.92;;
4048;Laerm;2038;51.728;6.674;2024-03-23T08:33:40;35.74;26.56;39.08;;
4048;Laerm;2038;51.728;6.674;2024-03-23T09:53:57;35.94;26.56;39.58;;
4048;Laerm;2038;51.728;6.674;2024-03-23T09:57:30;35.93;26.91;39.81;;
4048;Laerm;2038;51.728;6.674;2024-03-23T10:04:10;35.88;26.91;39.46;;
4048;Laerm;2038;51.728;6.674;2024-03-23T10:07:40;35.85;23.90;39.34;;
4048;Laerm;2038;51.728;6.674;2024-03-23T10:14:56;35.86;26.91;39.08;;
4048;Laerm;2038;51.728;6.674;2024-03-23T10:23:45;35.84;23.90;39.34;;
4048;Laerm;2038;51.728;6.674;2024-03-23T10:26:24;35.88;26.91;39.21;;
4048;Laerm;2038;51.728;6.674;2024-03-23T10:29:04;35.88;23.90;39.58;;
4048;Laerm;2038;51.728;6.674;2024-03-23T10:31:53;35.89;26.91;39.58;;
4048;Laerm;2038;51.728;6.674;2024-03-23T10:35:15;35.92;23.90;39.34;;
4048;Laerm;2038;51.728;6.674;2024-03-23T10:37:58;35.85;23.90;39.58;;
4048;Laerm;2038;51.728;6.674;2024-03-23T10:40:34;35.90;26.91;40.23;;
4048;Laerm;2038;51.728;6.674;2024-03-23T10:43:03;35.86;23.90;39.21;;
4048;Laerm;2038;51.728;6.674;2024-03-23T10:45:30;35.80;23.90;39.46;;
4048;Laerm;2038;51.728;6.674;2024-03-23T10:48:04;35.81;23.90;39.34;;
4048;Laerm;2038;51.728;6.674;2024-03-23T10:50:30;35.76;23.90;39.58;;
4048;Laerm;2038;51.728;6.674;2024-03-23T10:52:58;35.80;26.91;39.21;;
4048;Laerm;2038;51.728;6.674;2024-03-23T10:55:26;35.82;23.90;39.58;;
4048;Laerm;2038;51.728;6.674;2024-03-23T10:57:56;35.80;26.91;39.34;;
4048;Laerm;2038;51.728;6.674;2024-03-23T11:00:38;35.79;23.90;39.08;;
4048;Laerm;2038;51.728;6.674;2024-03-23T11:03:34;35.79;23.90;39.46;;
4048;Laerm;2038;51.728;6.674;2024-03-23T11:06:06;35.82;23.90;39.46;;
4048;Laerm;2038;51.728;6.674;2024-03-23T11:09:03;35.81;23.90;39.46;;
4048;Laerm;2038;51.728;6.674;2024-03-23T11:11:29;35.79;5.00;39.58;;
4048;Laerm;2038;51.728;6.674;2024-03-23T11:13:59;35.79;26.91;39.34;;
4048;Laerm;2038;51.728;6.674;2024-03-23T11:16:28;35.84;23.90;39.58;;
4048;Laerm;2038;51.728;6.674;2024-03-23T11:19:35;35.82;5.00;39.21;;
4048;Laerm;2038;51.728;6.674;2024-03-23T11:22:15;35.86;23.90;39.34;;
4048;Laerm;2038;51.728;6.674;2024-03-23T11:25:30;35.87;23.90;39.08;;
4048;Laerm;2038;51.728;6.674;2024-03-23T11:28:12;35.87;28.67;39.58;;
4048;Laerm;2038;51.728;6.674;2024-03-23T11:30:46;35.84;26.91;39.21;;
4048;Laerm;2038;51.728;6.674;2024-03-23T11:33:15;35.86;23.90;39.21;;
4048;Laerm;2038;51.728;6.674;2024-03-23T11:35:53;35.87;28.67;39.34;;
4048;Laerm;2038;51.728;6.674;2024-03-23T11:38:40;35.86;23.90;39.58;;
4048;Laerm;2038;51.728;6.674;2024-03-23T11:41:21;35.90;26.91;39.46;;
4048;Laerm;2038;51.728;6.674;2024-03-23T11:43:49;35.85;23.90;39.21;;
4048;Laerm;2038;51.728;6.674;2024-03-23T11:46:28;35.84;23.90;39.34;;
4048;Laerm;2038;51.728;6.674;2024-03-23T11:48:56;35.88;26.56;39.08;;
4048;Laerm;2038;51.728;6.674;2024-03-23T11:51:51;35.87;23.90;39.08;;
4048;Laerm;2038;51.728;6.674;2024-03-23T11:54:26;35.87;26.91;39.58;;
4048;Laerm;2038;51.728;6.674;2024-03-23T11:59:45;35.84;23.90;39.21;;
4048;Laerm;2038;51.728;6.674;2024-03-23T12:02:22;35.83;5.00;39.21;;
4048;Laerm;2038;51.728;6.674;2024-03-23T12:04:54;35.82;28.67;39.08;;
4048;Laerm;2038;51.728;6.674;2024-03-23T12:07:36;35.80;5.00;39.46;;
4048;Laerm;2038;51.728;6.674;2024-03-23T12:10:12;35.84;23.90;39.34;;
4048;Laerm;2038;51.728;6.674;2024-03-23T12:12:39;35.79;26.91;39.08;;
4048;Laerm;2038;51.728;6.674;2024-03-23T12:15:09;35.79;26.91;39.08;;
4048;Laerm;2038;51.728;6.674;2024-03-23T12:17:44;35.81;26.91;39.46;;
4048;Laerm;2038;51.728;6.674;2024-03-23T12:20:13;35.84;26.91;39.58;;
4048;Laerm;2038;51.728;6.674;2024-03-23T12:22:47;35.88;23.90;39.21;;
4048;Laerm;2038;51.728;6.674;2024-03-23T12:25:22;35.86;26.56;39.81;;
4048;Laerm;2038;51.728;6.674;2024-03-23T12:28:05;35.81;23.90;39.21;;
4048;Laerm;2038;51.728;6.674;2024-03-23T12:30:42;35.81;23.90;39.21;;
4048;Laerm;2038;51.728;6.674;2024-03-23T12:33:10;35.82;23.90;39.21;;
4048;Laerm;2038;51.728;6.674;2024-03-23T12:35:38;35.82;23.90;39.46;;
4048;Laerm;2038;51.728;6.674;2024-03-23T12:38:09;35.86;23.90;39.34;;
4048;Laerm;2038;51.728;6.674;2024-03-23T12:40:40;35.80;26.91;39.34;;
4048;Laerm;2038;51.728;6.674;2024-03-23T12:43:11;35.82;5.00;39.08;;
4048;Laerm;2038;51.728;6.674;2024-03-23T12:46:02;35.84;26.91;39.21;;
4048;Laerm;2038;51.728;6.674;2024-03-23T12:48:33;35.80;28.67;39.46;;
4048;Laerm;2038;51.728;6.674;2024-03-23T12:51:06;35.82;26.91;39.21;;
4048;Laerm;2038;51.728;6.674;2024-03-23T12:53:34;35.83;23.90;39.34;;
4048;Laerm;2038;51.728;6.674;2024-03-23T12:56:03;35.79;26.91;39.21;;
4048;Laerm;2038;51.728;6.674;2024-03-23T12:58:42;35.80;26.91;39.58;;
4048;Laerm;2038;51.728;6.674;2024-03-23T13:01:10;35.78;23.90;39.08;;
4048;Laerm;2038;51.728;6.674;2024-03-23T13:03:41;35.79;26.91;39.08;;
4048;Laerm;2038;51.728;6.674;2024-03-23T13:06:24;35.75;26.91;39.70;;
4048;Laerm;2038;51.728;6.674;2024-03-23T13:09:15;35.76;23.90;40.03;;
4048;Laerm;2038;51.728;6.674;2024-03-23T13:11:47;35.80;23.90;39.08;;
4048;Laerm;2038;51.728;6.674;2024-03-23T13:14:27;35.78;26.91;39.08;;
4048;Laerm;2038;51.728;6.674;2024-03-23T13:16:54;35.81;23.90;39.21;;
4048;Laerm;2038;51.728;6.674;2024-03-23T13:19:37;35.78;5.00;38.95;;
4048;Laerm;2038;51.728;6.674;2024-03-23T13:22:25;35.76;26.91;39.08;;
4048;Laerm;2038;51.728;6.674;2024-03-23T13:28:05;35.76;26.91;39.08;;
4048;Laerm;2038;51.728;6.674;2024-03-23T13:30:49;35.71;5.00;39.34;;
4048;Laerm;2038;51.728;6.674;2024-03-23T13:33:27;35.70;23.90;39.58;;
4048;Laerm;2038;51.728;6.674;2024-03-23T13:36:08;35.72;23.90;39.21;;
4048;Laerm;2038;51.728;6.674;2024-03-23T13:38:41;35.73;26.91;38.95;;
4048;Laerm;2038;51.728;6.674;2024-03-23T13:41:20;35.78;26.91;39.08;;
4048;Laerm;2038;51.728;6.674;2024-03-23T13:43:49;35.79;26.91;39.46;;
4048;Laerm;2038;51.728;6.674;2024-03-23T13:46:25;35.76;26.91;39.34;;
4048;Laerm;2038;51.728;6.674;2024-03-23T13:48:54;35.75;23.90;38.95;;
4048;Laerm;2038;51.728;6.674;2024-03-23T13:51:49;35.77;5.00;39.21;;
4048;Laerm;2038;51.728;6.674;2024-03-23T13:54:30;35.79;26.91;39.34;;
4048;Laerm;2038;51.728;6.674;2024-03-23T13:57:09;35.78;26.91;38.95;;
4048;Laerm;2038;51.728;6.674;2024-03-23T13:59:59;35.78;26.91;39.81;;
4048;Laerm;2038;51.728;6.674;2024-03-23T14:02:27;35.83;26.91;39.21;;
4048;Laerm;2038;51.728;6.674;2024-03-23T14:14:00;35.77;23.90;39.58;;
4048;Laerm;2038;51.728;6.674;2024-03-23T14:20:13;35.76;28.67;39.34;;
4048;Laerm;2038;51.728;6.674;2024-03-23T14:22:40;35.74;23.90;39.21;;
4048;Laerm;2038;51.728;6.674;2024-03-23T14:25:08;35.77;26.91;39.08;;
4048;Laerm;2038;51.728;6.674;2024-03-23T14:27:34;35.72;26.91;39.70;;
4048;Laerm;2038;51.728;6.674;2024-03-23T14:30:04;35.76;23.90;38.95;;
4048;Laerm;2038;51.728;6.674;2024-03-23T14:32:34;35.76;26.91;39.08;;
4048;Laerm;2038;51.728;6.674;2024-03-23T14:35:03;35.76;26.91;39.21;;
4048;Laerm;2038;51.728;6.674;2024-03-23T14:37:29;35.78;23.90;39.08;;
4048;Laerm;2038;51.728;6.674;2024-03-23T14:39:56;35.80;26.91;38.99;;
4048;Laerm;2038;51.728;6.674;2024-03-23T14:42:23;35.74;26.91;39.21;;
4048;Laerm;2038;51.728;6.674;2024-03-23T14:44:50;35.76;23.90;39.21;;
4048;Laerm;2038;51.728;6.674;2024-03-23T14:47:18;35.77;23.90;39.46;;
4048;Laerm;2038;51.728;6.674;2024-03-23T14:49:45;35.72;23.90;39.46;;
4048;Laerm;2038;51.728;6.674;2024-03-23T14:52:20;35.75;28.67;39.46;;
4048;Laerm;2038;51.728;6.674;2024-03-23T14:54:46;35.78;23.90;39.21;;
4048;Laerm;2038;51.728;6.674;2024-03-23T14:57:13;35.78;5.00;39.08;;
4048;Laerm;2038;51.728;6.674;2024-03-23T14:59:39;35.74;26.91;39.21;;
4048;Laerm;2038;51.728;6.674;2024-03-23T15:02:12;35.69;26.91;38.95;;
4048;Laerm;2038;51.728;6.674;2024-03-23T15:04:39;35.77;23.90;39.08;;
4048;Laerm;2038;51.728;6.674;2024-03-23T15:07:08;35.75;26.91;39.34;;
4048;Laerm;2038;51.728;6.674;2024-03-23T15:09:34;35.77;23.90;39.08;;
4048;Laerm;2038;51.728;6.674;2024-03-23T15:12:00;35.76;23.90;39.21;;
4048;Laerm;2038;51.728;6.674;2024-03-23T15:14:26;35.82;28.67;39.46;;
4048;Laerm;2038;51.728;6.674;2024-03-23T15:16:53;35.78;26.91;39.23;;
4048;Laerm;2038;51.728;6.674;2024-03-23T15:19:20;35.76;26.91;39.34;;
4048;Laerm;2038;51.728;6.674;2024-03-23T15:21:46;35.78;26.91;39.46;;
4048;Laerm;2038;51.728;6.674;2024-03-23T15:27:27;35.79;23.90;39.34;;
4048;Laerm;2038;51.728;6.674;2024-03-23T15:30:16;35.79;23.90;39.21;;
4048;Laerm;2038;51.728;6.674;2024-03-23T15:32:48;35.76;23.90;39.08;;
4048;Laerm;2038;51.728;6.674;2024-03-23T15:35:47;35.81;26.91;39.46;;
4048;Laerm;2038;51.728;6.674;2024-03-23T15:38:36;35.77;26.91;39.21;;
4048;Laerm;2038;51.728;6.674;2024-03-23T15:41:36;35.78;26.91;39.46;;
4048;Laerm;2038;51.728;6.674;2024-03-23T15:44:07;35.76;23.90;39.34;;
4048;Laerm;2038;51.728;6.674;2024-03-23T17:25:26;35.71;26.91;39.34;;
4048;Laerm;2038;51.728;6.674;2024-03-23T17:27:52;35.71;23.90;38.81;;
4048;Laerm;2038;51.728;6.674;2024-03-23T17:30:19;35.71;23.90;39.21;;
4048;Laerm;2038;51.728;6.674;2024-03-23T17:32:45;35.71;23.90;38.95;;
4048;Laerm;2038;51.728;6.674;2024-03-23T17:35:13;35.72;28.67;39.46;;
4048;Laerm;2038;51.728;6.674;2024-03-23T17:37:41;35.70;26.91;39.21;;
4048;Laerm;2038;51.728;6.674;2024-03-23T17:40:08;35.68;5.00;39.34;;
4048;Laerm;2038;51.728;6.674;2024-03-23T17:42:36;35.68;23.90;39.58;;
4048;Laerm;2038;51.728;6.674;2024-03-23T17:45:42;35.71;5.00;38.95;;
4048;Laerm;2038;51.728;6.674;2024-03-23T17:48:23;35.72;26.91;38.95;;
4048;Laerm;2038;51.728;6.674;2024-03-23T17:51:20;35.70;5.00;39.08;;
4048;Laerm;2038;51.728;6.674;2024-03-23T17:54:01;35.72;23.90;39.08;;
4048;Laerm;2038;51.728;6.674;2024-03-23T17:56:53;35.71;5.00;39.46;;
4048;Laerm;2038;51.728;6.674;2024-03-23T17:59:50;35.71;26.91;39.34;;
4048;Laerm;2038;51.728;6.674;2024-03-23T18:02:38;35.71;23.90;39.08;;
4048;Laerm;2038;51.728;6.674;2024-03-23T18:05:33;35.71;23.90;39.34;;
4048;Laerm;2038;51.728;6.674;2024-03-23T18:08:05;35.70;26.91;39.58;;
4048;Laerm;2038;51.728;6.674;2024-03-23T18:10:56;35.75;23.90;39.21;;
4048;Laerm;2038;51.728;6.674;2024-03-23T18:13:38;35.71;26.91;39.08;;
4048;Laerm;2038;51.728;6.674;2024-03-23T18:16:22;35.70;26.91;39.34;;
4048;Laerm;2038;51.728;6.674;2024-03-23T18:18:55;35.72;23.90;38.95;;
4048;Laerm;2038;51.728;6.674;2024-03-23T18:21:31;35.75;28.32;39.21;;
4048;Laerm;2038;51.728;6.674;2024-03-23T18:23:59;35.70;23.90;39.46;;
4048;Laerm;2038;51.728;6.674;2024-03-23T18:26:38;35.71;23.90;39.21;;
4048;Laerm;2038;51.728;6.674;2024-03-23T18:29:06;35.70;23.90;39.46;;
4048;Laerm;2038;51.728;6.674;2024-03-23T18:31:44;35.71;23.90;38.95;;
4048;Laerm;2038;51.728;6.674;2024-03-23T18:34:12;35.72;23.90;39.81;;
4048;Laerm;2038;51.728;6.674;2024-03-23T18:36:43;35.75;28.67;39.21;;
4048;Laerm;2038;51.728;6.674;2024-03-23T18:39:14;35.70;5.00;39.46;;
4048;Laerm;2038;51.728;6.674;2024-03-23T18:41:41;35.75;26.91;39.58;;
4048;Laerm;2038;51.728;6.674;2024-03-23T18:44:09;35.73;23.90;39.34;;
4048;Laerm;2038;51.728;6.674;2024-03-23T18:46:44;35.76;26.91;38.95;;
4048;Laerm;2038;51.728;6.674;2024-03-23T18:49:45;35.70;23.90;39.46;;
4048;Laerm;2038;51.728;6.674;2024-03-23T18:52:45;35.74;5.00;39.21;;
4048;Laerm;2038;51.728;6.674;2024-03-23T18:55:12;35.74;23.90;39.21;;
4048;Laerm;2038;51.728;6.674;2024-03-23T18:57:44;35.75;23.90;39.46;;
4048;Laerm;2038;51.728;6.674;2024-03-23T19:03:18;35.73;26.91;39.21;;
4048;Laerm;2038;51.728;6.674;2024-03-23T19:08:21;35.71;26.91;39.08;;
4048;Laerm;2038;51.728;6.674;2024-03-23T19:11:01;35.71;23.90;39.34;;
4048;Laerm;2038;51.728;6.674;2024-03-23T19:13:29;35.72;23.90;38.67;;
4048;Laerm;2038;51.728;6.674;2024-03-23T19:16:00;35.72;26.91;39.46;;
4048;Laerm;2038;51.728;6.674;2024-03-23T19:18:27;35.72;23.90;39.46;;
4048;Laerm;2038;51.728;6.674;2024-03-23T19:20:55;35.72;26.91;38.95;;
4048;Laerm;2038;51.728;6.674;2024-03-23T19:23:22;35.70;26.91;39.08;;
4048;Laerm;2038;51.728;6.674;2024-03-23T19:25:59;35.73;23.90;39.08;;
4048;Laerm;2038;51.728;6.674;2024-03-23T19:28:27;35.71;26.91;39.46;;
4048;Laerm;2038;51.728;6.674;2024-03-23T19:30:55;35.71;26.91;39.08;;
4048;Laerm;2038;51.728;6.674;2024-03-23T19:33:21;35.72;26.91;38.95;;
4048;Laerm;2038;51.728;6.674;2024-03-23T19:35:55;35.72;23.90;39.34;;
4048;Laerm;2038;51.728;6.674;2024-03-23T19:38:22;35.74;5.00;39.46;;
4048;Laerm;2038;51.728;6.674;2024-03-23T19:40:57;35.72;26.91;39.21;;
4048;Laerm;2038;51.728;6.674;2024-03-23T19:43:26;35.67;26.91;39.34;;
4048;Laerm;2038;51.728;6.674;2024-03-23T19:45:54;35.71;23.90;39.21;;